createdAt,value
2022-10-25T00:00:59.013Z,4.08
2022-10-25T00:04:05.181Z,4.20
2022-10-25T00:06:41.661Z,4.33
2022-10-25T00:12:17.069Z,4.65
2022-10-25T00:14:58.652Z,4.80
2022-10-25T00:17:38.009Z,4.96
2022-10-25T00:20:32.566Z,5.32
2022-10-25T00:23:10.725Z,5.60
2022-10-25T00:26:00.232Z,5.98
2022-10-25T00:29:00.958Z,6.24
2022-10-25T00:31:38.589Z,6.18
2022-10-25T00:34:31.505Z,6.04
2022-10-25T00:37:11.330Z,5.79
2022-10-25T00:39:53.614Z,5.89
2022-10-25T00:42:34.285Z,5.75
2022-10-25T00:45:47.235Z,6.23
2022-10-25T00:51:25.426Z,6.55
2022-10-25T00:54:07.447Z,6.81
2022-10-25T00:57:04.725Z,7.00
2022-10-25T00:59:39.212Z,7.12
2022-10-25T01:02:26.151Z,7.33
2022-10-25T01:05:13.857Z,7.18
2022-10-25T01:07:59.764Z,7.39
2022-10-25T01:10:59.776Z,7.23
2022-10-25T01:13:39.035Z,7.17
2022-10-25T01:16:41.711Z,7.10
2022-10-25T01:19:37.596Z,7.30
2022-10-25T01:22:24.833Z,7.85
2022-10-25T01:25:27.350Z,7.93
2022-10-25T01:28:21.325Z,7.91
2022-10-25T01:31:26.106Z,7.80
2022-10-25T01:34:20.025Z,7.71
2022-10-25T01:37:22.563Z,7.61
2022-10-25T01:40:38.046Z,7.47
2022-10-25T01:43:40.370Z,7.37
2022-10-25T01:46:42.068Z,7.56
2022-10-25T01:49:59.489Z,7.64
2022-10-25T01:52:38.081Z,7.65
2022-10-25T01:55:34.580Z,7.85
2022-10-25T01:58:32.719Z,8.26
2022-10-25T02:01:21.883Z,8.64
2022-10-25T02:04:16.947Z,8.84
2022-10-25T02:07:14.980Z,9.06
2022-10-25T02:13:14.626Z,8.83
2022-10-25T02:16:14.050Z,8.78
2022-10-25T02:18:58.897Z,9.00
2022-10-25T02:21:39.290Z,8.95
2022-10-25T02:24:38.783Z,8.70
2022-10-25T02:27:25.272Z,8.41
2022-10-25T02:30:11.417Z,8.37
2022-10-25T02:32:56.649Z,8.11
2022-10-25T02:39:12.061Z,8.40
2022-10-25T02:41:45.485Z,8.40
2022-10-25T02:45:02.579Z,8.30
2022-10-25T02:47:49.763Z,8.17
2022-10-25T02:50:38.974Z,8.05
2022-10-25T02:53:39.914Z,8.07
2022-10-25T02:56:26.042Z,7.87
2022-10-25T02:59:35.443Z,8.07
2022-10-25T03:02:14.221Z,8.03
2022-10-25T03:05:01.865Z,7.58
2022-10-25T03:07:49.350Z,7.72
2022-10-25T03:10:50.321Z,7.47
2022-10-25T03:14:08.696Z,7.42
2022-10-25T03:16:56.900Z,7.16
2022-10-25T03:23:04.354Z,7.71
2022-10-25T03:25:43.143Z,7.81
2022-10-25T03:28:51.655Z,8.00
2022-10-25T03:31:29.284Z,8.21
2022-10-25T03:37:29.309Z,8.78
2022-10-25T03:40:14.458Z,8.76
2022-10-25T03:43:03.199Z,9.01
2022-10-25T03:46:02.525Z,8.91
2022-10-25T03:48:49.721Z,9.14
2022-10-25T03:52:05.035Z,9.10
2022-10-25T03:57:44.018Z,8.97
2022-10-25T04:00:21.102Z,8.98
2022-10-25T04:03:11.161Z,8.92
2022-10-25T04:05:58.628Z,8.93
2022-10-25T04:08:49.475Z,8.91
2022-10-25T04:11:26.456Z,8.85
2022-10-25T04:14:03.966Z,8.60
2022-10-25T04:16:45.275Z,8.83
2022-10-25T04:19:30.809Z,8.86
2022-10-25T04:22:23.306Z,8.55
2022-10-25T04:25:09.684Z,8.73
2022-10-25T04:33:28.909Z,8.69
2022-10-25T04:36:06.957Z,8.69
2022-10-25T04:38:54.878Z,8.63
2022-10-25T04:41:58.357Z,8.62
2022-10-25T04:44:35.717Z,8.68
2022-10-25T04:47:12.566Z,8.63
2022-10-25T04:49:49.741Z,8.61
2022-10-25T04:52:28.248Z,8.51
2022-10-25T04:55:08.083Z,8.34
2022-10-25T04:57:57.615Z,8.45
2022-10-25T05:03:40.973Z,8.52
2022-10-25T05:06:24.374Z,8.49
2022-10-25T05:09:10.798Z,8.51
2022-10-25T05:12:02.900Z,8.50
2022-10-25T05:14:48.274Z,8.46
2022-10-25T05:17:26.338Z,8.38
2022-10-25T05:20:13.256Z,8.34
2022-10-25T05:25:57.801Z,8.29
2022-10-25T05:34:46.244Z,8.31
2022-10-25T05:37:30.185Z,8.29
2022-10-25T05:40:37.067Z,8.26
2022-10-25T05:43:14.487Z,8.19
2022-10-25T05:46:25.827Z,8.05
2022-10-25T05:49:40.437Z,7.99
2022-10-25T05:58:45.702Z,7.84
2022-10-25T06:04:25.595Z,7.68
2022-10-25T06:07:03.872Z,7.67
2022-10-25T06:09:59.455Z,7.62
2022-10-25T06:12:52.836Z,7.56
2022-10-25T06:15:48.241Z,7.52
2022-10-25T06:24:12.683Z,7.33
2022-10-25T06:33:17.427Z,7.00
2022-10-25T06:38:50.162Z,6.83
2022-10-25T06:47:50.391Z,6.59
2022-10-25T06:50:35.083Z,6.53
2022-10-25T06:53:30.685Z,6.45
2022-10-25T06:59:29.019Z,6.20
2022-10-25T07:02:11.007Z,6.11
2022-10-25T07:08:10.653Z,5.96
2022-10-25T07:11:10.606Z,5.83
2022-10-25T07:17:07.080Z,5.58
2022-10-25T07:19:45.179Z,5.50
2022-10-25T07:22:45.883Z,5.41
2022-10-25T07:25:29.443Z,5.22
2022-10-25T07:28:19.480Z,5.02
2022-10-25T07:31:19.594Z,4.81
2022-10-25T07:34:02.131Z,4.64
2022-10-25T07:36:45.463Z,4.42
2022-10-25T07:39:43.767Z,4.24
2022-10-25T07:42:26.556Z,4.09
2022-10-25T07:45:20.301Z,3.98
2022-10-25T07:50:59.342Z,3.55
2022-10-25T07:53:39.125Z,3.37
2022-10-25T07:56:28.656Z,3.11
2022-10-25T07:59:09.894Z,2.65
2022-10-25T08:01:55.290Z,2.45
2022-10-25T08:07:18.960Z,2.08
2022-10-25T08:10:04.558Z,1.99
2022-10-25T08:12:51.235Z,1.89
2022-10-25T08:21:46.855Z,1.68
2022-10-25T08:28:07.217Z,1.33
2022-10-25T08:31:10.234Z,1.25
2022-10-25T08:37:00.709Z,0.99
2022-10-25T08:40:23.491Z,0.92
2022-10-25T08:43:37.327Z,0.51
2022-10-25T08:46:23.208Z,0.80
2022-10-25T08:49:31.527Z,0.76
2022-10-25T08:52:38.356Z,0.60
2022-10-25T08:55:32.530Z,0.63
2022-10-25T08:59:10.901Z,-0.15
2022-10-25T09:02:06.826Z,0.64
2022-10-25T09:04:42.951Z,0.61
2022-10-25T09:07:40.723Z,0.57
2022-10-25T09:13:27.695Z,0.68
2022-10-25T09:16:21.202Z,0.80
2022-10-25T09:19:14.780Z,0.76
2022-10-25T09:22:19.393Z,1.17
2022-10-25T09:25:08.301Z,1.32
2022-10-25T09:27:57.858Z,1.54
2022-10-25T09:30:44.520Z,1.64
2022-10-25T09:33:31.160Z,1.75
2022-10-25T09:36:47.724Z,1.77
2022-10-25T09:39:53.644Z,1.93
2022-10-25T09:45:45.017Z,1.94
2022-10-25T09:52:02.438Z,1.63
2022-10-25T09:55:12.774Z,1.42
2022-10-25T10:01:03.887Z,1.47
2022-10-25T10:03:54.759Z,1.55
2022-10-25T10:06:45.986Z,1.71
2022-10-25T10:09:28.929Z,1.91
2022-10-25T10:12:17.202Z,2.03
2022-10-25T10:15:04.070Z,1.87
2022-10-25T10:17:47.946Z,1.17
2022-10-25T10:20:33.954Z,1.21
2022-10-25T10:29:35.603Z,0.60
2022-10-25T10:32:30.722Z,0.46
2022-10-25T10:35:57.012Z,0.09
2022-10-25T10:39:09.959Z,0.19
2022-10-25T10:42:15.002Z,0.20
2022-10-25T10:49:10.851Z,0.12
2022-10-25T10:52:19.951Z,0.05
2022-10-25T10:54:58.238Z,0.03
2022-10-25T10:58:28.872Z,-0.01
2022-10-25T11:07:58.246Z,-0.37
2022-10-25T11:10:52.363Z,-0.19
2022-10-25T11:13:39.286Z,-0.21
2022-10-25T11:16:52.125Z,-0.43
2022-10-25T11:20:09.091Z,-0.32
2022-10-25T11:23:29.291Z,-0.41
2022-10-25T11:26:34.630Z,-0.38
2022-10-25T11:29:29.630Z,-0.39
2022-10-25T11:32:22.947Z,-0.46
2022-10-25T11:35:11.508Z,-0.56
2022-10-25T11:38:09.445Z,-0.68
2022-10-25T11:40:50.956Z,-0.63
2022-10-25T11:43:54.959Z,-0.53
2022-10-25T11:46:57.489Z,-0.49
2022-10-25T11:49:56.975Z,-0.49
2022-10-25T11:52:57.263Z,-0.52
2022-10-25T11:55:52.833Z,-0.59
2022-10-25T11:59:17.940Z,-0.66
2022-10-25T12:02:11.538Z,-0.75
2022-10-25T12:05:09.563Z,-0.63
2022-10-25T12:07:55.111Z,-0.62
2022-10-25T12:10:39.207Z,-0.60
2022-10-25T12:14:07.087Z,-0.55
2022-10-25T12:16:54.135Z,-0.57
2022-10-25T12:19:50.423Z,-0.60
2022-10-25T12:22:50.118Z,-0.70
2022-10-25T12:25:55.969Z,-0.76
2022-10-25T12:28:51.215Z,-0.83
2022-10-25T12:31:35.716Z,-0.87
2022-10-25T12:34:32.577Z,-0.96
2022-10-25T12:37:17.418Z,-0.81
2022-10-25T12:40:14.782Z,-0.83
2022-10-25T12:43:03.700Z,-0.75
2022-10-25T12:46:34.208Z,-0.75
2022-10-25T12:49:55.647Z,-0.77
2022-10-25T12:52:39.859Z,-1.37
2022-10-25T12:55:52.567Z,-0.92
2022-10-25T12:58:55.301Z,-0.99
2022-10-25T13:01:58.223Z,-0.95
2022-10-25T13:05:18.072Z,-0.91
2022-10-25T13:07:56.108Z,-1.16
2022-10-25T13:11:03.946Z,-0.84
2022-10-25T13:14:09.367Z,-0.80
2022-10-25T13:16:47.861Z,-0.83
2022-10-25T13:20:49.170Z,-0.82
2022-10-25T13:24:02.051Z,-0.83
2022-10-25T13:27:20.995Z,-0.91
2022-10-25T13:30:34.345Z,-0.93
2022-10-25T13:33:44.437Z,-1.03
2022-10-25T13:37:02.109Z,-1.02
2022-10-25T13:40:00.147Z,-1.11
2022-10-25T13:42:56.762Z,-1.67
2022-10-25T13:45:49.127Z,-0.85
2022-10-25T13:48:50.809Z,-0.91
2022-10-25T13:51:31.518Z,-0.88
2022-10-25T13:54:23.623Z,-1.52
2022-10-25T13:57:10.030Z,-0.81
2022-10-25T14:00:06.548Z,-0.84
2022-10-25T14:03:24.466Z,-1.44
2022-10-25T14:06:35.790Z,-0.92
2022-10-25T14:09:45.274Z,-1.61
2022-10-25T14:12:28.317Z,-1.63
2022-10-25T14:15:13.165Z,-0.88
2022-10-25T14:18:06.094Z,-0.88
2022-10-25T14:20:45.753Z,-0.84
2022-10-25T14:23:24.854Z,-0.85
2022-10-25T14:26:26.573Z,-0.99
2022-10-25T14:29:24.700Z,-1.03
2022-10-25T14:32:14.903Z,-1.05
2022-10-25T14:35:09.458Z,-1.08
2022-10-25T14:38:05.454Z,-1.02
2022-10-25T14:40:50.562Z,-1.03
2022-10-25T14:43:52.840Z,-0.96
2022-10-25T14:46:30.984Z,-0.98
2022-10-25T14:49:10.007Z,-0.99
2022-10-25T14:52:04.993Z,-0.98
2022-10-25T14:54:43.900Z,-1.07
2022-10-25T14:57:37.393Z,-1.00
2022-10-25T15:00:14.261Z,-1.01
2022-10-25T15:03:02.058Z,-0.91
2022-10-25T15:05:53.116Z,-0.80
2022-10-25T15:08:34.839Z,-0.75
2022-10-25T15:11:36.030Z,-0.79
2022-10-25T15:14:33.646Z,-0.71
2022-10-25T15:17:43.294Z,-0.75
2022-10-25T15:20:31.429Z,-1.29
2022-10-25T15:23:26.180Z,-0.78
2022-10-25T15:26:10.819Z,-0.70
2022-10-25T15:29:06.979Z,-1.04
2022-10-25T15:32:00.975Z,-0.78
2022-10-25T15:34:37.850Z,-0.69
2022-10-25T15:37:26.535Z,-0.77
2022-10-25T15:40:10.851Z,-0.76
2022-10-25T15:42:55.156Z,-0.65
2022-10-25T15:45:45.952Z,-0.59
2022-10-25T15:48:38.204Z,-0.54
2022-10-25T15:51:28.859Z,-0.49
2022-10-25T15:54:12.101Z,-0.50
2022-10-25T15:56:58.626Z,-0.35
2022-10-25T16:00:07.846Z,-0.36
2022-10-25T16:02:48.092Z,-0.46
2022-10-25T16:05:35.467Z,-0.55
2022-10-25T16:08:15.292Z,-0.83
2022-10-25T16:10:55.308Z,-0.57
2022-10-25T16:13:46.604Z,-0.57
2022-10-25T16:16:46.087Z,-0.95
2022-10-25T16:19:35.302Z,-0.71
2022-10-25T16:22:13.607Z,-0.64
2022-10-25T16:24:50.727Z,-0.66
2022-10-25T16:27:27.794Z,-0.68
2022-10-25T16:30:07.578Z,-0.71
2022-10-25T16:32:48.216Z,-0.73
2022-10-25T16:35:28.643Z,-0.68
2022-10-25T16:40:46.713Z,-0.75
2022-10-25T16:43:25.846Z,-0.84
2022-10-25T16:46:12.939Z,-0.97
2022-10-25T16:49:06.985Z,-0.98
2022-10-25T16:52:03.023Z,-0.98
2022-10-25T16:54:47.877Z,-0.98
2022-10-25T16:57:26.824Z,-1.01
2022-10-25T17:00:03.374Z,-1.09
2022-10-25T17:02:42.323Z,-1.16
2022-10-25T17:05:37.806Z,-1.07
2022-10-25T17:11:50.124Z,-1.01
2022-10-25T17:14:32.321Z,-1.01
2022-10-25T17:17:18.010Z,-0.96
2022-10-25T17:20:03.087Z,-0.90
2022-10-25T17:22:41.156Z,-0.91
2022-10-25T17:25:29.425Z,-0.90
2022-10-25T17:28:04.813Z,-0.95
2022-10-25T17:30:43.512Z,-1.01
2022-10-25T17:33:20.721Z,-1.04
2022-10-25T17:35:58.908Z,-1.09
2022-10-25T17:38:44.667Z,-1.14
2022-10-25T17:41:30.968Z,-1.19
2022-10-25T17:44:10.748Z,-1.25
2022-10-25T17:46:59.629Z,-1.31
2022-10-25T17:49:38.351Z,-1.34
2022-10-25T17:52:31.042Z,-1.40
2022-10-25T17:58:11.640Z,-1.39
2022-10-25T18:00:56.790Z,-1.39
2022-10-25T18:03:43.649Z,-1.39
2022-10-25T18:06:29.120Z,-1.70
2022-10-25T18:09:17.237Z,-1.47
2022-10-25T18:12:08.621Z,-1.45
2022-10-25T18:14:55.903Z,-1.46
2022-10-25T18:17:35.357Z,-1.48
2022-10-25T18:20:13.751Z,-1.52
2022-10-25T18:22:51.836Z,-1.55
2022-10-25T18:25:29.324Z,-1.71
2022-10-25T18:28:16.937Z,-1.67
2022-10-25T18:30:53.472Z,-1.63
2022-10-25T18:33:31.920Z,-1.57
2022-10-25T18:36:19.691Z,-1.50
2022-10-25T18:38:56.924Z,-1.38
2022-10-25T18:41:35.028Z,-1.34
2022-10-25T18:44:29.046Z,-1.29
2022-10-25T18:47:08.045Z,-1.33
2022-10-25T18:50:00.574Z,-1.29
2022-10-25T18:52:48.411Z,-1.27
2022-10-25T18:55:33.771Z,-1.24
2022-10-25T18:58:09.249Z,-1.28
2022-10-25T19:00:51.145Z,-1.37
2022-10-25T19:03:45.659Z,-1.47
2022-10-25T19:06:33.874Z,-1.60
2022-10-25T19:09:17.535Z,-1.69
2022-10-25T19:12:05.442Z,-1.79
2022-10-25T19:14:41.673Z,-1.90
2022-10-25T19:17:25.475Z,-1.95
2022-10-25T19:20:06.389Z,-2.06
2022-10-25T19:22:58.961Z,-2.10
2022-10-25T19:25:40.326Z,-2.12
2022-10-25T19:28:23.606Z,-2.11
2022-10-25T19:31:14.109Z,-1.89
2022-10-25T19:34:16.593Z,-1.92
2022-10-25T19:36:56.007Z,-1.81
2022-10-25T19:39:32.321Z,-1.73
2022-10-25T19:42:18.298Z,-1.66
2022-10-25T19:45:31.418Z,-1.58
2022-10-25T19:48:24.548Z,-1.57
2022-10-25T19:51:14.126Z,-1.54
2022-10-25T19:56:45.059Z,-1.44
2022-10-25T19:59:30.374Z,-1.43
2022-10-25T20:02:10.857Z,-1.57
2022-10-25T20:04:47.101Z,-1.32
2022-10-25T20:07:31.596Z,-1.34
2022-10-25T20:10:27.287Z,-1.27
2022-10-25T20:13:04.968Z,-1.34
2022-10-25T20:16:08.839Z,-1.33
2022-10-25T20:19:10.591Z,-1.25
2022-10-25T20:24:54.223Z,-1.19
2022-10-25T20:27:32.089Z,-1.18
2022-10-25T20:30:08.873Z,-1.15
2022-10-25T20:33:12.673Z,-1.13
2022-10-25T20:35:57.953Z,-1.15
2022-10-25T20:38:36.686Z,-1.01
2022-10-25T20:41:47.553Z,-1.01
2022-10-25T20:44:41.545Z,-0.94
2022-10-25T20:47:27.657Z,-0.87
2022-10-25T20:50:07.963Z,-0.77
2022-10-25T20:52:52.786Z,-0.87
2022-10-25T20:55:56.723Z,-0.80
2022-10-25T20:58:44.895Z,-0.75
2022-10-25T21:01:44.157Z,-1.11
2022-10-25T21:04:59.577Z,-0.84
2022-10-25T21:08:01.587Z,-0.96
2022-10-25T21:10:54.707Z,-1.07
2022-10-25T21:14:26.646Z,-0.94
2022-10-25T21:17:17.950Z,-0.82
2022-10-25T21:20:28.923Z,-0.78
2022-10-25T21:23:05.453Z,-0.77
2022-10-25T21:28:31.853Z,-0.69
2022-10-25T21:31:15.188Z,-0.93
2022-10-25T21:33:50.276Z,-0.63
2022-10-25T21:36:34.241Z,-0.48
2022-10-25T21:39:17.982Z,-0.40
2022-10-25T21:44:56.834Z,-0.40
2022-10-25T21:51:08.003Z,-0.32
2022-10-25T21:53:54.815Z,-0.28
2022-10-25T21:56:39.200Z,-0.18
2022-10-25T21:59:35.620Z,-0.15
2022-10-25T22:02:23.243Z,0.05
2022-10-25T22:08:38.461Z,0.22
2022-10-25T22:11:38.329Z,0.34
2022-10-25T22:14:18.812Z,0.41
2022-10-25T22:17:05.005Z,0.60
2022-10-25T22:19:48.952Z,0.75
2022-10-25T22:23:07.139Z,0.89
2022-10-25T22:26:08.902Z,1.04
2022-10-25T22:28:59.421Z,0.81
2022-10-25T22:31:39.436Z,1.00
2022-10-25T22:34:33.843Z,1.36
2022-10-25T22:37:51.719Z,1.51
2022-10-25T22:43:47.079Z,1.53
2022-10-25T22:47:07.850Z,1.84
2022-10-25T22:50:11.987Z,2.19
2022-10-25T22:53:05.935Z,2.35
2022-10-25T22:55:45.229Z,2.50
2022-10-25T22:58:33.428Z,2.67
2022-10-25T23:07:46.473Z,3.17
2022-10-25T23:10:27.093Z,3.39
2022-10-25T23:13:35.380Z,3.61
2022-10-25T23:16:14.553Z,3.78
2022-10-25T23:19:03.314Z,3.94
2022-10-25T23:22:01.394Z,4.09
2022-10-25T23:24:45.164Z,4.20
2022-10-25T23:27:24.558Z,4.33
2022-10-25T23:30:11.197Z,4.47
2022-10-25T23:35:49.512Z,4.71
2022-10-25T23:38:35.917Z,4.86
2022-10-25T23:41:14.720Z,5.04
2022-10-25T23:43:56.447Z,5.23
2022-10-25T23:49:36.547Z,5.57
2022-10-25T23:52:16.700Z,5.63
2022-10-25T23:54:58.468Z,5.81
2022-10-25T23:57:43.093Z,5.88
